createdAt,value
2023-05-22T00:03:04.948Z,60.89
2023-05-22T00:08:11.898Z,61.07
2023-05-22T00:13:13.783Z,60.98
2023-05-22T00:18:15.680Z,60.92
2023-05-22T00:23:18.340Z,60.97
2023-05-22T00:28:20.397Z,61.16
2023-05-22T00:33:22.444Z,61.13
2023-05-22T00:38:32.911Z,62.10
2023-05-22T00:43:34.887Z,61.74
2023-05-22T00:48:36.765Z,61.73
2023-05-22T00:53:38.784Z,61.59
2023-05-22T00:58:41.427Z,61.79
2023-05-22T01:03:47.212Z,61.70
2023-05-22T01:08:49.295Z,62.06
2023-05-22T01:14:01.132Z,62.02
2023-05-22T01:19:21.295Z,62.08
2023-05-22T01:24:52.278Z,62.27
2023-05-22T01:29:56.770Z,63.16
2023-05-22T01:35:02.367Z,61.82
2023-05-22T01:40:07.795Z,62.09
2023-05-22T01:45:11.681Z,62.49
2023-05-22T01:50:14.627Z,62.40
2023-05-22T01:55:22.876Z,62.77
2023-05-22T02:00:27.819Z,62.65
2023-05-22T02:05:32.729Z,63.06
2023-05-22T02:10:36.670Z,63.01
2023-05-22T02:15:38.979Z,62.95
2023-05-22T02:20:41.970Z,63.42
2023-05-22T02:25:43.849Z,63.30
2023-05-22T02:30:45.720Z,63.12
2023-05-22T02:35:48.130Z,63.25
2023-05-22T02:40:50.050Z,62.96
2023-05-22T02:45:51.919Z,62.97
2023-05-22T02:50:53.870Z,63.09
2023-05-22T02:55:59.035Z,63.18
2023-05-22T03:01:01.102Z,63.01
2023-05-22T03:06:04.398Z,62.97
2023-05-22T03:11:08.107Z,62.90
2023-05-22T03:16:10.026Z,62.89
2023-05-22T03:21:16.881Z,63.00
2023-05-22T03:26:18.743Z,63.05
2023-05-22T03:31:29.294Z,63.73
2023-05-22T03:36:38.579Z,63.45
2023-05-22T03:41:41.071Z,63.74
2023-05-22T03:46:43.278Z,63.42
2023-05-22T03:51:45.349Z,63.32
2023-05-22T03:56:47.320Z,63.26
2023-05-22T04:01:49.211Z,62.82
2023-05-22T04:06:53.576Z,62.90
2023-05-22T04:11:58.931Z,63.22
2023-05-22T04:17:00.789Z,62.27
2023-05-22T04:22:03.639Z,62.33
2023-05-22T04:27:08.740Z,61.56
2023-05-22T04:32:10.803Z,60.64
2023-05-22T04:37:15.234Z,59.67
2023-05-22T04:42:17.553Z,58.00
2023-05-22T04:47:19.753Z,55.99
2023-05-22T04:52:21.963Z,54.63
2023-05-22T04:57:27.886Z,53.63
2023-05-22T05:02:31.902Z,52.60
2023-05-22T05:07:37.691Z,53.29
2023-05-22T05:12:39.892Z,52.87
2023-05-22T05:17:42.931Z,51.72
2023-05-22T05:22:46.245Z,51.07
2023-05-22T05:27:50.603Z,49.96
2023-05-22T05:32:57.457Z,50.98
2023-05-22T05:38:08.098Z,51.96
2023-05-22T05:43:16.156Z,52.23
2023-05-22T05:48:20.001Z,52.07
2023-05-22T05:53:23.688Z,52.57
2023-05-22T05:58:32.245Z,52.56
2023-05-22T06:03:56.035Z,52.66
2023-05-22T06:09:07.461Z,52.37
2023-05-22T06:14:23.734Z,52.25
2023-05-22T06:19:30.777Z,52.28
2023-05-22T06:24:33.934Z,52.23
2023-05-22T06:29:41.559Z,51.65
2023-05-22T06:34:47.592Z,51.34
2023-05-22T06:39:55.589Z,51.50
2023-05-22T06:45:07.330Z,51.67
2023-05-22T06:50:21.559Z,51.53
2023-05-22T06:55:23.772Z,51.09
2023-05-22T07:00:36.366Z,50.30
2023-05-22T07:05:51.683Z,50.33
2023-05-22T07:10:53.884Z,50.24
2023-05-22T07:15:57.097Z,50.31
2023-05-22T07:21:04.889Z,50.06
2023-05-22T07:26:08.329Z,50.25
2023-05-22T07:31:15.144Z,50.22
2023-05-22T07:36:19.079Z,49.57
2023-05-22T07:41:22.842Z,49.02
2023-05-22T07:46:29.325Z,48.31
2023-05-22T07:51:41.265Z,47.42
2023-05-22T07:56:46.597Z,46.54
2023-05-22T08:01:51.891Z,46.21
2023-05-22T08:06:53.829Z,45.69
2023-05-22T08:11:56.770Z,44.32
2023-05-22T08:17:00.461Z,43.55
2023-05-22T08:22:03.425Z,43.65
2023-05-22T08:27:05.532Z,43.56
2023-05-22T08:32:08.819Z,42.81
2023-05-22T08:37:16.628Z,41.63
2023-05-22T08:42:19.531Z,41.73
2023-05-22T08:47:26.169Z,41.33
2023-05-22T08:52:37.510Z,39.64
2023-05-22T08:57:41.076Z,39.18
2023-05-22T09:02:43.079Z,39.05
2023-05-22T09:07:45.873Z,38.91
2023-05-22T09:13:01.202Z,36.67
2023-05-22T09:18:06.727Z,38.66
2023-05-22T09:23:17.968Z,37.34
2023-05-22T09:28:20.643Z,38.19
2023-05-22T09:33:23.665Z,38.16
2023-05-22T09:38:29.254Z,36.93
2023-05-22T09:43:33.530Z,37.42
2023-05-22T09:48:38.965Z,37.35
2023-05-22T09:53:43.447Z,35.92
2023-05-22T09:58:47.840Z,37.09
2023-05-22T10:03:53.015Z,37.38
2023-05-22T10:09:01.024Z,37.85
2023-05-22T10:14:05.174Z,38.30
2023-05-22T10:19:08.486Z,39.12
2023-05-22T10:24:10.410Z,39.26
2023-05-22T10:29:17.320Z,39.28
2023-05-22T10:34:44.743Z,39.52
2023-05-22T10:40:07.526Z,39.26
2023-05-22T10:45:12.350Z,40.23
2023-05-22T10:50:15.044Z,40.21
2023-05-22T10:55:23.707Z,38.67
2023-05-22T11:00:25.889Z,39.36
2023-05-22T11:05:34.520Z,39.65
2023-05-22T11:10:56.202Z,38.50
2023-05-22T11:15:58.479Z,38.25
2023-05-22T11:21:01.048Z,37.71
2023-05-22T11:26:26.434Z,36.24
2023-05-22T11:31:30.253Z,37.54
2023-05-22T11:36:32.695Z,37.74
2023-05-22T11:41:34.605Z,37.98
2023-05-22T11:46:36.508Z,37.77
2023-05-22T11:51:39.538Z,38.19
2023-05-22T11:56:41.822Z,37.97
2023-05-22T12:01:43.796Z,36.63
2023-05-22T12:06:46.246Z,37.33
2023-05-22T12:11:48.783Z,37.15
2023-05-22T12:16:52.815Z,36.90
2023-05-22T12:21:55.174Z,36.91
2023-05-22T12:26:57.060Z,37.58
2023-05-22T12:32:04.050Z,36.90
2023-05-22T12:37:21.297Z,36.38
2023-05-22T12:42:23.740Z,36.51
2023-05-22T12:47:25.974Z,36.38
2023-05-22T12:52:28.052Z,37.54
2023-05-22T12:57:30.005Z,37.70
2023-05-22T13:02:32.091Z,37.17
2023-05-22T13:07:37.069Z,37.33
2023-05-22T13:12:39.098Z,37.02
2023-05-22T13:17:41.395Z,37.11
2023-05-22T13:22:43.364Z,37.31
2023-05-22T13:27:46.052Z,37.03
2023-05-22T13:32:48.207Z,36.79
2023-05-22T13:37:50.569Z,37.07
2023-05-22T13:42:52.909Z,37.07
2023-05-22T13:47:54.836Z,37.01
2023-05-22T13:52:56.720Z,36.97
2023-05-22T13:57:58.947Z,37.01
2023-05-22T14:03:01.056Z,37.28
2023-05-22T14:08:03.061Z,37.75
2023-05-22T14:13:04.947Z,38.55
2023-05-22T14:18:06.830Z,38.50
2023-05-22T14:23:09.056Z,37.88
2023-05-22T14:28:11.905Z,37.94
2023-05-22T14:33:13.866Z,38.37
2023-05-22T14:38:16.265Z,38.38
2023-05-22T14:43:18.203Z,38.28
2023-05-22T14:48:20.710Z,38.50
2023-05-22T14:53:23.399Z,38.72
2023-05-22T14:58:25.389Z,38.83
2023-05-22T15:03:27.439Z,39.13
2023-05-22T15:08:29.270Z,39.37
2023-05-22T15:13:31.135Z,39.65
2023-05-22T15:18:32.999Z,40.36
2023-05-22T15:23:35.811Z,40.33
2023-05-22T15:28:37.654Z,40.65
2023-05-22T15:33:39.859Z,40.96
2023-05-22T15:38:42.724Z,41.05
2023-05-22T15:43:44.683Z,41.22
2023-05-22T15:48:46.927Z,42.08
2023-05-22T15:53:50.953Z,42.34
2023-05-22T15:58:52.816Z,42.62
2023-05-22T16:03:54.739Z,42.64
2023-05-22T16:08:56.612Z,42.90
2023-05-22T16:13:58.513Z,43.13
2023-05-22T16:19:00.515Z,43.45
2023-05-22T16:24:03.688Z,43.73
2023-05-22T16:29:09.121Z,44.38
2023-05-22T16:34:11.028Z,44.04
2023-05-22T16:39:12.906Z,44.33
2023-05-22T16:44:14.774Z,44.51
2023-05-22T16:49:16.646Z,44.55
2023-05-22T16:54:18.580Z,44.37
2023-05-22T16:59:20.464Z,44.70
2023-05-22T17:04:22.363Z,44.75
2023-05-22T17:09:24.291Z,45.08
2023-05-22T17:14:26.531Z,45.22
2023-05-22T17:19:28.452Z,45.33
2023-05-22T17:24:30.395Z,45.17
2023-05-22T17:29:32.314Z,45.42
2023-05-22T17:34:34.394Z,45.54
2023-05-22T17:39:36.327Z,45.81
2023-05-22T17:44:38.211Z,46.01
2023-05-22T17:49:40.158Z,46.26
2023-05-22T17:54:42.089Z,46.27
2023-05-22T17:59:44.336Z,46.59
2023-05-22T18:04:46.249Z,46.37
2023-05-22T18:09:48.704Z,46.63
2023-05-22T18:14:50.646Z,47.34
2023-05-22T18:19:52.514Z,47.51
2023-05-22T18:24:54.374Z,47.77
2023-05-22T18:29:56.464Z,48.06
2023-05-22T18:34:58.772Z,48.54
2023-05-22T18:40:00.776Z,49.19
2023-05-22T18:45:02.838Z,49.71
2023-05-22T18:50:05.407Z,50.74
2023-05-22T18:55:07.964Z,50.27
2023-05-22T19:00:10.649Z,50.82
2023-05-22T19:05:12.730Z,51.41
2023-05-22T19:10:14.624Z,51.75
2023-05-22T19:15:16.519Z,51.93
2023-05-22T19:20:18.410Z,52.02
2023-05-22T19:25:21.142Z,52.20
2023-05-22T19:30:23.125Z,52.36
2023-05-22T19:35:24.988Z,52.16
2023-05-22T19:40:26.883Z,52.54
2023-05-22T19:45:29.095Z,52.39
2023-05-22T19:50:30.974Z,52.68
2023-05-22T19:55:34.529Z,53.03
2023-05-22T20:00:38.291Z,53.28
2023-05-22T20:05:40.519Z,53.15
2023-05-22T20:10:42.671Z,53.17
2023-05-22T20:15:47.638Z,53.34
2023-05-22T20:20:49.791Z,53.07
2023-05-22T20:25:51.658Z,53.36
2023-05-22T20:30:53.595Z,53.69
2023-05-22T20:35:55.555Z,53.87
2023-05-22T20:40:59.776Z,54.68
2023-05-22T20:46:02.616Z,54.98
2023-05-22T20:51:05.243Z,55.06
2023-05-22T20:56:08.602Z,54.95
2023-05-22T21:01:10.821Z,55.13
2023-05-22T21:06:12.682Z,54.82
2023-05-22T21:11:14.548Z,54.86
2023-05-22T21:16:16.522Z,54.68
2023-05-22T21:21:20.523Z,54.72
2023-05-22T21:26:23.145Z,54.71
2023-05-22T21:31:25.233Z,54.62
2023-05-22T21:36:27.084Z,54.69
2023-05-22T21:41:28.976Z,54.92
2023-05-22T21:46:31.565Z,54.92
2023-05-22T21:51:33.604Z,55.08
2023-05-22T21:56:35.658Z,55.19
2023-05-22T22:01:37.646Z,55.27
2023-05-22T22:06:39.563Z,55.41
2023-05-22T22:11:41.467Z,55.40
2023-05-22T22:16:45.510Z,55.42
2023-05-22T22:21:47.442Z,55.78
2023-05-22T22:26:49.427Z,55.55
2023-05-22T22:31:51.466Z,55.60
2023-05-22T22:36:53.999Z,55.28
2023-05-22T22:41:55.853Z,55.55
2023-05-22T22:46:57.849Z,55.88
2023-05-22T22:51:59.793Z,55.77
2023-05-22T22:57:01.626Z,55.68
2023-05-22T23:02:03.492Z,55.79
2023-05-22T23:07:05.616Z,56.08
2023-05-22T23:12:08.495Z,55.79
2023-05-22T23:17:10.592Z,56.29
2023-05-22T23:22:12.628Z,56.32
2023-05-22T23:27:14.950Z,56.26
2023-05-22T23:32:16.811Z,56.50
2023-05-22T23:37:18.678Z,56.92
2023-05-22T23:42:20.542Z,56.64
2023-05-22T23:47:22.589Z,56.50
2023-05-22T23:52:24.486Z,56.75
2023-05-22T23:57:26.447Z,56.89
